sensor_id;sensor_type;location;lat;lon;timestamp;P1;durP1;ratioP1;P2;durP2;ratioP2
7883;SDS011;3987;51.458;7.238;2023-07-16T00:07:45;2.30;;;1.40;;
7883;SDS011;3987;51.458;7.238;2023-07-16T00:22:46;1.33;;;1.23;;
7883;SDS011;3987;51.458;7.238;2023-07-16T00:37:46;3.27;;;1.70;;
7883;SDS011;3987;51.458;7.238;2023-07-16T00:52:47;1.67;;;1.57;;
7883;SDS011;3987;51.458;7.238;2023-07-16T01:07:58;1.43;;;1.20;;
7883;SDS011;3987;51.458;7.238;2023-07-16T01:38:19;3.93;;;1.77;;
7883;SDS011;3987;51.458;7.238;2023-07-16T01:53:21;2.40;;;1.87;;
7883;SDS011;3987;51.458;7.238;2023-07-16T02:08:21;2.30;;;2.03;;
7883;SDS011;3987;51.458;7.238;2023-07-16T02:23:23;2.20;;;2.10;;
7883;SDS011;3987;51.458;7.238;2023-07-16T02:38:23;4.47;;;1.40;;
7883;SDS011;3987;51.458;7.238;2023-07-16T02:53:24;3.40;;;1.90;;
7883;SDS011;3987;51.458;7.238;2023-07-16T03:08:24;2.57;;;1.90;;
7883;SDS011;3987;51.458;7.238;2023-07-16T03:23:29;2.33;;;1.97;;
7883;SDS011;3987;51.458;7.238;2023-07-16T03:38:30;3.70;;;1.90;;
7883;SDS011;3987;51.458;7.238;2023-07-16T03:53:31;3.27;;;2.17;;
7883;SDS011;3987;51.458;7.238;2023-07-16T04:08:32;2.07;;;1.80;;
7883;SDS011;3987;51.458;7.238;2023-07-16T04:23:33;6.93;;;1.70;;
7883;SDS011;3987;51.458;7.238;2023-07-16T04:38:33;3.13;;;1.80;;
7883;SDS011;3987;51.458;7.238;2023-07-16T04:53:33;3.37;;;2.40;;
7883;SDS011;3987;51.458;7.238;2023-07-16T05:08:34;3.07;;;2.30;;
7883;SDS011;3987;51.458;7.238;2023-07-16T05:23:34;3.80;;;2.60;;
7883;SDS011;3987;51.458;7.238;2023-07-16T05:38:35;4.60;;;2.30;;
7883;SDS011;3987;51.458;7.238;2023-07-16T05:53:35;3.17;;;2.83;;
7883;SDS011;3987;51.458;7.238;2023-07-16T06:08:36;5.80;;;3.40;;
7883;SDS011;3987;51.458;7.238;2023-07-16T06:23:36;4.73;;;3.33;;
7883;SDS011;3987;51.458;7.238;2023-07-16T06:38:36;4.97;;;4.37;;
7883;SDS011;3987;51.458;7.238;2023-07-16T06:53:37;5.23;;;4.63;;
7883;SDS011;3987;51.458;7.238;2023-07-16T07:08:37;5.27;;;3.80;;
7883;SDS011;3987;51.458;7.238;2023-07-16T07:23:38;4.00;;;3.77;;
7883;SDS011;3987;51.458;7.238;2023-07-16T07:38:38;6.73;;;4.20;;
7883;SDS011;3987;51.458;7.238;2023-07-16T07:53:39;4.60;;;4.20;;
7883;SDS011;3987;51.458;7.238;2023-07-16T08:08:39;4.57;;;4.17;;
7883;SDS011;3987;51.458;7.238;2023-07-16T08:23:40;5.20;;;4.30;;
7883;SDS011;3987;51.458;7.238;2023-07-16T08:38:40;4.53;;;4.23;;
7883;SDS011;3987;51.458;7.238;2023-07-16T08:53:41;5.50;;;3.97;;
7883;SDS011;3987;51.458;7.238;2023-07-16T09:08:41;5.60;;;3.27;;
7883;SDS011;3987;51.458;7.238;2023-07-16T09:23:42;3.63;;;3.40;;
7883;SDS011;3987;51.458;7.238;2023-07-16T09:38:42;5.17;;;3.60;;
7883;SDS011;3987;51.458;7.238;2023-07-16T09:53:43;4.67;;;3.77;;
7883;SDS011;3987;51.458;7.238;2023-07-16T10:08:48;5.13;;;3.47;;
7883;SDS011;3987;51.458;7.238;2023-07-16T10:23:56;4.20;;;3.43;;
7883;SDS011;3987;51.458;7.238;2023-07-16T10:39:02;3.77;;;3.57;;
7883;SDS011;3987;51.458;7.238;2023-07-16T10:54:04;2.93;;;2.83;;
7883;SDS011;3987;51.458;7.238;2023-07-16T11:09:06;2.57;;;2.47;;
7883;SDS011;3987;51.458;7.238;2023-07-16T11:24:12;2.60;;;2.50;;
7883;SDS011;3987;51.458;7.238;2023-07-16T11:39:15;3.00;;;2.80;;
7883;SDS011;3987;51.458;7.238;2023-07-16T11:54:16;3.00;;;2.90;;
7883;SDS011;3987;51.458;7.238;2023-07-16T12:09:16;3.20;;;2.93;;
7883;SDS011;3987;51.458;7.238;2023-07-16T12:24:17;3.33;;;2.80;;
7883;SDS011;3987;51.458;7.238;2023-07-16T12:39:17;4.43;;;2.80;;
7883;SDS011;3987;51.458;7.238;2023-07-16T12:54:19;3.40;;;3.20;;
7883;SDS011;3987;51.458;7.238;2023-07-16T13:09:19;3.03;;;2.50;;
7883;SDS011;3987;51.458;7.238;2023-07-16T13:24:19;2.73;;;2.50;;
7883;SDS011;3987;51.458;7.238;2023-07-16T13:39:20;2.63;;;2.47;;
7883;SDS011;3987;51.458;7.238;2023-07-16T13:54:20;6.90;;;2.80;;
7883;SDS011;3987;51.458;7.238;2023-07-16T14:09:21;4.10;;;2.90;;
7883;SDS011;3987;51.458;7.238;2023-07-16T14:24:21;4.37;;;3.40;;
7883;SDS011;3987;51.458;7.238;2023-07-16T14:39:21;5.57;;;3.33;;
7883;SDS011;3987;51.458;7.238;2023-07-16T14:54:22;3.17;;;3.03;;
7883;SDS011;3987;51.458;7.238;2023-07-16T15:09:22;3.03;;;2.83;;
7883;SDS011;3987;51.458;7.238;2023-07-16T15:24:23;2.93;;;2.73;;
7883;SDS011;3987;51.458;7.238;2023-07-16T15:39:23;2.70;;;2.60;;
7883;SDS011;3987;51.458;7.238;2023-07-16T15:54:24;2.90;;;2.77;;
7883;SDS011;3987;51.458;7.238;2023-07-16T16:09:24;2.90;;;2.70;;
7883;SDS011;3987;51.458;7.238;2023-07-16T16:24:25;2.87;;;2.67;;
7883;SDS011;3987;51.458;7.238;2023-07-16T16:39:26;3.23;;;2.73;;
7883;SDS011;3987;51.458;7.238;2023-07-16T16:54:26;2.70;;;2.60;;
7883;SDS011;3987;51.458;7.238;2023-07-16T17:09:27;2.77;;;2.57;;
7883;SDS011;3987;51.458;7.238;2023-07-16T17:24:27;4.77;;;2.90;;
7883;SDS011;3987;51.458;7.238;2023-07-16T17:39:28;3.27;;;2.93;;
7883;SDS011;3987;51.458;7.238;2023-07-16T17:54:28;3.63;;;3.37;;
7883;SDS011;3987;51.458;7.238;2023-07-16T18:09:29;4.20;;;2.93;;
7883;SDS011;3987;51.458;7.238;2023-07-16T18:24:30;3.50;;;3.20;;
7883;SDS011;3987;51.458;7.238;2023-07-16T18:39:30;4.40;;;2.93;;
7883;SDS011;3987;51.458;7.238;2023-07-16T18:54:30;3.30;;;3.03;;
7883;SDS011;3987;51.458;7.238;2023-07-16T19:09:31;3.47;;;3.10;;
7883;SDS011;3987;51.458;7.238;2023-07-16T19:24:31;3.70;;;3.40;;
7883;SDS011;3987;51.458;7.238;2023-07-16T19:39:33;4.70;;;4.30;;
7883;SDS011;3987;51.458;7.238;2023-07-16T19:54:34;4.23;;;2.90;;
7883;SDS011;3987;51.458;7.238;2023-07-16T20:09:34;3.90;;;3.60;;
7883;SDS011;3987;51.458;7.238;2023-07-16T20:24:35;4.37;;;3.70;;
7883;SDS011;3987;51.458;7.238;2023-07-16T20:39:35;4.03;;;3.70;;
7883;SDS011;3987;51.458;7.238;2023-07-16T20:54:38;4.23;;;3.67;;
7883;SDS011;3987;51.458;7.238;2023-07-16T21:09:38;3.53;;;3.23;;
7883;SDS011;3987;51.458;7.238;2023-07-16T21:24:39;3.93;;;3.63;;
7883;SDS011;3987;51.458;7.238;2023-07-16T21:39:39;3.63;;;3.43;;
7883;SDS011;3987;51.458;7.238;2023-07-16T21:54:40;4.13;;;3.60;;
7883;SDS011;3987;51.458;7.238;2023-07-16T22:09:40;3.80;;;3.50;;
7883;SDS011;3987;51.458;7.238;2023-07-16T22:24:40;5.20;;;4.90;;
7883;SDS011;3987;51.458;7.238;2023-07-16T22:39:42;4.87;;;4.53;;
7883;SDS011;3987;51.458;7.238;2023-07-16T22:54:44;4.20;;;3.90;;
7883;SDS011;3987;51.458;7.238;2023-07-16T23:09:45;4.77;;;4.47;;
7883;SDS011;3987;51.458;7.238;2023-07-16T23:24:45;5.90;;;3.80;;
7883;SDS011;3987;51.458;7.238;2023-07-16T23:39:47;4.23;;;3.83;;
7883;SDS011;3987;51.458;7.238;2023-07-16T23:54:47;5.43;;;4.60;;
